Anajatuba, Brazil
Current Conditions -  °F | °C
As of 3:00 AM on Sunday 21 Dec 2014 (Local Time) from SBSL Reporting Station
Clear Clear  
Wind Chill: 27°   Ceiling: Unl
Heat Index: 29°   Visibility: 6mi
Dew Point: 22°   Wind: 9mph
Humidity: 74%   Direction: 60°ENE
Pressure: 29.83"   Gusts: NA
Location:  3.26°S, 44.62°W
Report Text: SBSL 210600Z 06008KT CAVOK 27/22 Q1010
Loading
Personal Weather Stations






























Interactive Weather Map New forecast layout! Learn more

10-Day Weather Forecast

Advertisements
Track Severe Weather on mobile